createdAt,value
2022-11-20T00:01:30.356Z,98564.47
2022-11-20T00:03:58.892Z,98573.00
2022-11-20T00:06:27.127Z,98569.50
2022-11-20T00:09:01.007Z,98566.88
2022-11-20T00:11:29.837Z,98559.09
2022-11-20T00:13:59.783Z,98563.38
2022-11-20T00:16:29.378Z,98571.03
2022-11-20T00:18:56.236Z,98563.34
2022-11-20T00:21:25.884Z,98564.16
2022-11-20T00:23:55.325Z,98569.25
2022-11-20T00:26:24.052Z,98569.22
2022-11-20T00:28:56.068Z,98571.69
2022-11-20T00:31:24.077Z,98569.88
2022-11-20T00:33:50.841Z,98566.41
2022-11-20T00:36:20.095Z,98561.22
2022-11-20T00:38:47.723Z,98568.00
2022-11-20T00:41:16.724Z,98568.88
2022-11-20T00:43:44.020Z,98561.13
2022-11-20T00:46:14.774Z,98559.34
2022-11-20T00:48:41.788Z,98572.09
2022-11-20T00:51:09.133Z,98572.00
2022-11-20T00:53:35.984Z,98566.78
2022-11-20T00:56:07.569Z,98559.84
2022-11-20T00:58:36.944Z,98550.38
2022-11-20T01:01:21.948Z,98546.06
2022-11-20T01:03:51.302Z,98533.22
2022-11-20T01:06:24.121Z,98534.03
2022-11-20T01:08:53.470Z,98529.66
2022-11-20T01:11:23.304Z,98534.75
2022-11-20T01:13:51.812Z,98541.63
2022-11-20T01:16:23.167Z,98550.97
2022-11-20T01:18:53.190Z,98550.94
2022-11-20T01:21:25.959Z,98544.06
2022-11-20T01:23:53.184Z,98550.06
2022-11-20T01:26:22.329Z,98549.28
2022-11-20T01:28:49.379Z,98541.59
2022-11-20T01:31:16.402Z,98538.28
2022-11-20T01:33:44.466Z,98539.25
2022-11-20T01:36:12.729Z,98541.06
2022-11-20T01:38:40.333Z,98542.84
2022-11-20T01:41:08.710Z,98535.19
2022-11-20T01:43:36.048Z,98537.81
2022-11-20T01:46:05.212Z,98539.59
2022-11-20T01:48:37.600Z,98541.28
2022-11-20T01:51:07.809Z,98539.59
2022-11-20T01:53:38.229Z,98536.94
2022-11-20T01:56:10.657Z,98538.69
2022-11-20T01:58:40.757Z,98536.91
2022-11-20T02:01:07.879Z,98534.38
2022-11-20T02:03:34.813Z,98532.69
2022-11-20T02:06:13.815Z,98528.38
2022-11-20T02:08:40.486Z,98529.19
2022-11-20T02:11:07.944Z,98522.34
2022-11-20T02:13:44.831Z,98532.63
2022-11-20T02:16:16.165Z,98524.97
2022-11-20T02:18:44.404Z,98525.84
2022-11-20T02:21:18.537Z,98513.00
2022-11-20T02:23:57.112Z,98507.91
2022-11-20T02:26:26.607Z,98492.53
2022-11-20T02:28:53.465Z,98495.09
2022-11-20T02:31:20.474Z,98495.16
2022-11-20T02:33:47.292Z,98488.31
2022-11-20T02:36:16.585Z,98484.91
2022-11-20T02:38:44.670Z,98482.38
2022-11-20T02:41:11.738Z,98484.06
2022-11-20T02:43:38.524Z,98484.03
2022-11-20T02:46:09.165Z,98490.88
2022-11-20T02:48:36.131Z,98490.06
2022-11-20T02:51:03.394Z,98490.06
2022-11-20T02:53:30.279Z,98493.53
2022-11-20T02:55:57.402Z,98489.25
2022-11-20T02:58:24.165Z,98496.16
2022-11-20T03:00:51.442Z,98498.66
2022-11-20T03:03:18.340Z,98489.25
2022-11-20T03:05:45.417Z,98485.88
2022-11-20T03:08:12.195Z,98478.97
2022-11-20T03:10:39.260Z,98478.16
2022-11-20T03:13:06.398Z,98460.13
2022-11-20T03:15:33.408Z,98471.28
2022-11-20T03:18:00.245Z,98462.72
2022-11-20T03:20:27.321Z,98460.16
2022-11-20T03:22:55.189Z,98462.72
2022-11-20T03:25:23.078Z,98461.00
2022-11-20T03:27:49.879Z,98454.13
2022-11-20T03:30:17.022Z,98452.38
2022-11-20T03:32:44.292Z,98452.38
2022-11-20T03:35:11.369Z,98451.47
2022-11-20T03:37:38.144Z,98445.41
2022-11-20T03:40:05.943Z,98441.97
2022-11-20T03:42:47.936Z,98447.13
2022-11-20T03:45:17.110Z,98439.41
2022-11-20T03:47:44.861Z,98440.22
2022-11-20T03:50:14.625Z,98450.44
2022-11-20T03:52:41.802Z,98433.25
2022-11-20T03:55:09.284Z,98431.50
2022-11-20T03:57:36.082Z,98421.25
2022-11-20T04:00:04.364Z,98418.59
2022-11-20T04:02:31.244Z,98427.13
2022-11-20T04:04:58.345Z,98421.97
2022-11-20T04:07:25.176Z,98428.88
2022-11-20T04:09:52.233Z,98428.00
2022-11-20T04:12:19.010Z,98420.31
2022-11-20T04:14:46.081Z,98424.56
2022-11-20T04:17:12.816Z,98415.13
2022-11-20T04:19:39.862Z,98415.06
2022-11-20T04:22:06.717Z,98415.00
2022-11-20T04:24:33.761Z,98421.00
2022-11-20T04:27:00.543Z,98435.53
2022-11-20T04:29:27.588Z,98447.50
2022-11-20T04:31:54.377Z,98439.81
2022-11-20T04:34:21.478Z,98438.06
2022-11-20T04:36:48.284Z,98433.81
2022-11-20T04:39:16.502Z,98431.25
2022-11-20T04:41:43.645Z,98426.16
2022-11-20T04:44:10.737Z,98424.47
2022-11-20T04:46:40.968Z,98420.22
2022-11-20T04:49:08.827Z,98417.59
2022-11-20T04:51:36.085Z,98415.91
2022-11-20T04:54:03.253Z,98418.47
2022-11-20T04:56:30.172Z,98414.16
2022-11-20T04:59:01.258Z,98407.28
2022-11-20T05:01:28.175Z,98404.63
2022-11-20T05:03:55.234Z,98403.72
2022-11-20T05:06:23.400Z,98423.31
2022-11-20T05:08:50.654Z,98409.59
2022-11-20T05:11:20.137Z,98407.84
2022-11-20T05:13:48.022Z,98408.63
2022-11-20T05:16:18.647Z,98395.78
2022-11-20T05:18:46.522Z,98395.72
2022-11-20T05:21:14.269Z,98419.69
2022-11-20T05:23:41.873Z,98423.06
2022-11-20T05:26:16.069Z,98433.31
2022-11-20T05:28:43.321Z,98432.34
2022-11-20T05:31:16.237Z,98428.03
2022-11-20T05:33:45.133Z,98426.31
2022-11-20T05:36:14.304Z,98434.00
2022-11-20T05:38:42.572Z,98443.44
2022-11-20T05:41:09.290Z,98454.56
2022-11-20T05:43:37.864Z,98457.94
2022-11-20T05:46:06.124Z,98437.44
2022-11-20T05:48:34.385Z,98430.63
2022-11-20T05:51:02.901Z,98429.81
2022-11-20T05:53:30.105Z,98421.28
2022-11-20T05:55:58.401Z,98408.47
2022-11-20T05:58:25.856Z,98405.09
2022-11-20T06:00:52.782Z,98407.69
2022-11-20T06:03:20.087Z,98406.91
2022-11-20T06:05:46.983Z,98412.09
2022-11-20T06:08:14.031Z,98401.88
2022-11-20T06:10:40.772Z,98397.59
2022-11-20T06:13:07.860Z,98408.75
2022-11-20T06:15:34.648Z,98395.94
2022-11-20T06:18:01.709Z,98401.13
2022-11-20T06:20:28.556Z,98404.63
2022-11-20T06:22:55.597Z,98409.84
2022-11-20T06:25:22.329Z,98414.19
2022-11-20T06:27:49.317Z,98417.69
2022-11-20T06:30:16.354Z,98417.78
2022-11-20T06:32:43.690Z,98417.88
2022-11-20T06:35:10.799Z,98411.09
2022-11-20T06:37:37.896Z,98411.16
2022-11-20T06:40:05.243Z,98417.31
2022-11-20T06:42:33.415Z,98413.97
2022-11-20T06:45:00.168Z,98427.78
2022-11-20T06:47:27.217Z,98424.38
2022-11-20T06:49:53.991Z,98415.06
2022-11-20T06:52:21.064Z,98405.78
2022-11-20T06:54:47.791Z,98403.34
2022-11-20T06:57:14.837Z,98394.00
2022-11-20T06:59:41.706Z,98390.63
2022-11-20T07:02:13.103Z,98389.78
2022-11-20T07:04:40.840Z,98391.47
2022-11-20T07:07:07.943Z,98397.47
2022-11-20T07:09:35.036Z,98381.09
2022-11-20T07:12:02.114Z,98385.34
2022-11-20T07:14:28.932Z,98391.34
2022-11-20T07:16:56.185Z,98386.13
2022-11-20T07:19:23.147Z,98380.09
2022-11-20T07:21:50.333Z,98385.38
2022-11-20T07:24:17.075Z,98400.06
2022-11-20T07:26:48.001Z,98389.75
2022-11-20T07:29:14.748Z,98390.63
2022-11-20T07:31:41.892Z,98399.22
2022-11-20T07:34:08.686Z,98397.50
2022-11-20T07:36:35.965Z,98403.53
2022-11-20T07:39:02.884Z,98395.78
2022-11-20T07:41:30.185Z,98400.94
2022-11-20T07:43:56.985Z,98417.28
2022-11-20T07:46:23.996Z,98406.94
2022-11-20T07:48:50.838Z,98408.69
2022-11-20T07:51:17.951Z,98419.00
2022-11-20T07:53:44.698Z,98405.22
2022-11-20T07:56:12.084Z,98400.94
2022-11-20T07:58:38.857Z,98399.19
2022-11-20T08:01:07.821Z,98408.63
2022-11-20T08:03:35.325Z,98403.44
2022-11-20T08:06:03.007Z,98400.81
2022-11-20T08:08:33.408Z,98398.16
2022-11-20T08:11:33.595Z,98400.66
2022-11-20T08:14:15.419Z,98393.69
2022-11-20T08:16:44.828Z,98383.28
2022-11-20T08:19:11.947Z,98376.34
2022-11-20T08:21:39.205Z,98376.28
2022-11-20T08:24:06.750Z,98371.06
2022-11-20T08:26:33.581Z,98370.13
2022-11-20T08:29:00.826Z,98367.41
2022-11-20T08:31:28.590Z,98355.19
2022-11-20T08:33:56.005Z,98352.44
2022-11-20T08:36:23.490Z,98357.41
2022-11-20T08:38:55.324Z,98363.28
2022-11-20T08:41:25.394Z,98366.63
2022-11-20T08:43:57.695Z,98375.28
2022-11-20T08:46:26.362Z,98366.56
2022-11-20T08:48:54.230Z,98369.94
2022-11-20T08:51:21.668Z,98369.88
2022-11-20T08:53:49.677Z,98368.19
2022-11-20T08:56:16.945Z,98368.19
2022-11-20T08:59:15.439Z,98374.25
2022-11-20T09:01:31.186Z,98371.72
2022-11-20T09:03:58.493Z,98359.56
2022-11-20T09:06:25.249Z,98362.94
2022-11-20T09:08:55.720Z,98367.09
2022-11-20T09:11:22.716Z,98357.38
2022-11-20T09:13:50.492Z,98352.00
2022-11-20T09:16:17.273Z,98369.00
2022-11-20T09:18:44.451Z,98361.84
2022-11-20T09:21:12.936Z,98364.13
2022-11-20T09:23:40.437Z,98352.50
2022-11-20T09:26:10.092Z,98348.50
2022-11-20T09:28:37.534Z,98351.44
2022-11-20T09:31:09.400Z,98343.69
2022-11-20T09:33:37.032Z,98330.63
2022-11-20T09:36:04.100Z,98325.13
2022-11-20T09:38:31.194Z,98329.38
2022-11-20T09:41:03.950Z,98313.78
2022-11-20T09:47:01.313Z,98313.47
2022-11-20T09:49:43.469Z,98313.53
2022-11-20T09:52:29.302Z,98322.38
2022-11-20T09:54:56.549Z,98316.31
2022-11-20T09:57:32.571Z,98326.25
2022-11-20T10:00:06.728Z,98334.06
2022-11-20T10:02:49.847Z,98341.31
2022-11-20T10:05:51.420Z,98308.63
2022-11-20T10:08:22.825Z,98303.03
2022-11-20T10:10:58.702Z,98305.44
2022-11-20T10:13:34.148Z,98312.91
2022-11-20T10:16:01.173Z,98315.59
2022-11-20T10:18:38.020Z,98327.78
2022-11-20T10:21:16.889Z,98325.53
2022-11-20T10:23:57.288Z,98320.53
2022-11-20T10:26:41.599Z,98317.69
2022-11-20T10:29:18.088Z,98326.47
2022-11-20T10:31:54.362Z,98318.53
2022-11-20T10:34:44.548Z,98306.16
2022-11-20T10:37:19.024Z,98295.94
2022-11-20T10:39:55.732Z,98295.44
2022-11-20T10:42:33.038Z,98296.53
2022-11-20T10:45:24.319Z,98304.69
2022-11-20T10:47:54.086Z,98296.41
2022-11-20T10:50:23.080Z,98278.59
2022-11-20T10:53:08.351Z,98284.31
2022-11-20T10:55:51.550Z,98294.91
2022-11-20T10:58:42.194Z,98290.59
2022-11-20T11:01:27.029Z,98281.84
2022-11-20T11:03:56.508Z,98292.78
2022-11-20T11:06:35.148Z,98281.09
2022-11-20T11:09:12.899Z,98268.09
2022-11-20T11:11:40.170Z,98288.09
2022-11-20T11:14:13.157Z,98297.84
2022-11-20T11:16:55.730Z,98291.38
2022-11-20T11:19:23.681Z,98283.19
2022-11-20T11:21:55.851Z,98294.53
2022-11-20T11:24:43.090Z,98310.94
2022-11-20T11:27:18.833Z,98300.53
2022-11-20T11:29:47.520Z,98299.38
2022-11-20T11:32:21.665Z,98306.69
2022-11-20T11:35:20.077Z,98307.66
2022-11-20T11:37:48.256Z,98297.06
2022-11-20T11:40:23.966Z,98276.78
2022-11-20T11:42:57.012Z,98268.38
2022-11-20T11:45:24.789Z,98261.69
2022-11-20T11:47:53.353Z,98259.31
2022-11-20T11:50:22.066Z,98250.97
2022-11-20T11:53:14.289Z,98244.31
2022-11-20T11:55:45.080Z,98242.78
2022-11-20T11:58:20.739Z,98241.19
2022-11-20T12:01:07.984Z,98265.66
2022-11-20T12:03:42.071Z,98263.91
2022-11-20T12:06:16.572Z,98264.97
2022-11-20T12:09:09.242Z,98273.19
2022-11-20T12:11:44.934Z,98276.94
2022-11-20T12:14:43.554Z,98275.28
2022-11-20T12:17:15.146Z,98275.06
2022-11-20T12:19:42.296Z,98273.16
2022-11-20T12:22:34.343Z,98270.53
2022-11-20T12:25:16.691Z,98272.34
2022-11-20T12:28:18.006Z,98269.09
2022-11-20T12:30:59.832Z,98264.88
2022-11-20T12:33:59.090Z,98258.75
2022-11-20T12:36:25.704Z,98264.78
2022-11-20T12:39:11.408Z,98266.50
2022-11-20T12:42:14.970Z,98271.81
2022-11-20T12:45:06.628Z,98262.47
2022-11-20T12:47:51.180Z,98263.56
2022-11-20T12:51:13.960Z,98258.59
2022-11-20T12:54:10.815Z,98247.56
2022-11-20T12:56:51.427Z,98256.50
2022-11-20T12:59:28.390Z,98254.97
2022-11-20T13:02:18.263Z,98258.53
2022-11-20T13:04:54.197Z,98251.66
2022-11-20T13:07:23.933Z,98245.47
2022-11-20T13:09:51.991Z,98233.22
2022-11-20T13:12:28.258Z,98243.50
2022-11-20T13:15:06.074Z,98245.19
2022-11-20T13:17:41.665Z,98233.09
2022-11-20T13:20:17.292Z,98236.56
2022-11-20T13:22:47.617Z,98239.13
2022-11-20T13:25:31.748Z,98238.28
2022-11-20T13:28:01.510Z,98239.16
2022-11-20T13:30:30.858Z,98234.19
2022-11-20T13:33:10.163Z,98235.25
2022-11-20T13:35:38.453Z,98238.00
2022-11-20T13:38:05.495Z,98232.00
2022-11-20T13:40:33.080Z,98231.16
2022-11-20T13:43:19.193Z,98224.28
2022-11-20T13:45:56.911Z,98208.69
2022-11-20T13:48:27.347Z,98206.94
2022-11-20T13:51:22.411Z,98199.25
2022-11-20T13:54:05.601Z,98194.16
2022-11-20T13:56:48.941Z,98193.38
2022-11-20T13:59:24.959Z,98191.78
2022-11-20T14:01:51.704Z,98191.03
2022-11-20T14:04:30.126Z,98191.09
2022-11-20T14:06:58.312Z,98203.25
2022-11-20T14:09:31.223Z,98205.88
2022-11-20T14:11:58.319Z,98211.09
2022-11-20T14:14:27.976Z,98220.66
2022-11-20T14:17:26.557Z,98220.72
2022-11-20T14:19:54.948Z,98228.63
2022-11-20T14:22:26.959Z,98226.91
2022-11-20T14:25:02.817Z,98221.75
2022-11-20T14:27:30.173Z,98221.81
2022-11-20T14:29:57.331Z,98232.31
2022-11-20T14:32:29.467Z,98228.97
2022-11-20T14:35:09.778Z,98229.09
2022-11-20T14:37:39.999Z,98236.19
2022-11-20T14:40:31.200Z,98237.22
2022-11-20T14:42:59.513Z,98242.47
2022-11-20T14:45:27.393Z,98238.22
2022-11-20T14:47:57.610Z,98236.56
2022-11-20T14:50:28.619Z,98232.28
2022-11-20T14:52:57.640Z,98234.13
2022-11-20T14:55:27.671Z,98222.13
2022-11-20T14:58:22.027Z,98225.66
2022-11-20T15:01:26.486Z,98233.50
2022-11-20T15:04:20.648Z,98232.63
2022-11-20T15:06:53.356Z,98234.34
2022-11-20T15:09:20.231Z,98233.44
2022-11-20T15:12:02.470Z,98223.06
2022-11-20T15:14:31.638Z,98223.84
2022-11-20T15:16:58.844Z,98227.31
2022-11-20T15:19:27.466Z,98225.59
2022-11-20T15:21:54.557Z,98223.88
2022-11-20T15:24:21.852Z,98210.94
2022-11-20T15:26:49.243Z,98215.28
2022-11-20T15:29:21.920Z,98208.41
2022-11-20T15:31:48.999Z,98207.56
2022-11-20T15:34:16.631Z,98211.94
2022-11-20T15:36:44.788Z,98219.72
2022-11-20T15:39:12.662Z,98219.78
2022-11-20T15:41:40.261Z,98225.91
2022-11-20T15:44:07.586Z,98219.88
2022-11-20T15:46:41.228Z,98223.31
2022-11-20T15:49:13.454Z,98228.56
2022-11-20T15:51:47.669Z,98232.16
2022-11-20T15:54:21.588Z,98223.59
2022-11-20T15:56:50.346Z,98215.84
2022-11-20T15:59:17.100Z,98209.88
2022-11-20T16:01:44.404Z,98208.13
2022-11-20T16:04:16.348Z,98197.78
2022-11-20T16:06:43.868Z,98192.63
2022-11-20T16:09:10.715Z,98180.53
2022-11-20T16:11:38.480Z,98171.84
2022-11-20T16:14:25.208Z,98175.28
2022-11-20T16:16:52.579Z,98177.94
2022-11-20T16:19:19.650Z,98176.19
2022-11-20T16:21:46.748Z,98173.59
2022-11-20T16:24:17.268Z,98174.44
2022-11-20T16:26:44.385Z,98173.59
2022-11-20T16:29:11.353Z,98181.38
2022-11-20T16:31:38.664Z,98178.00
2022-11-20T16:34:11.792Z,98178.84
2022-11-20T16:36:44.704Z,98192.72
2022-11-20T16:39:12.650Z,98197.09
2022-11-20T16:41:40.148Z,98202.28
2022-11-20T16:44:11.714Z,98209.19
2022-11-20T16:46:40.885Z,98204.91
2022-11-20T16:49:11.906Z,98204.13
2022-11-20T16:51:38.937Z,98203.22
2022-11-20T16:54:07.948Z,98202.41
2022-11-20T16:56:35.257Z,98204.06
2022-11-20T16:59:02.981Z,98204.06
2022-11-20T17:01:30.740Z,98202.31
2022-11-20T17:04:00.053Z,98205.81
2022-11-20T17:06:29.962Z,98198.88
2022-11-20T17:08:57.837Z,98199.78
2022-11-20T17:11:25.935Z,98199.88
2022-11-20T17:13:55.012Z,98199.94
2022-11-20T17:16:24.283Z,98206.03
2022-11-20T17:18:51.327Z,98206.13
2022-11-20T17:21:19.271Z,98214.00
2022-11-20T17:23:47.079Z,98217.50
2022-11-20T17:26:20.124Z,98221.06
2022-11-20T17:28:47.844Z,98214.25
2022-11-20T17:31:17.582Z,98212.63
2022-11-20T17:33:46.413Z,98216.16
2022-11-20T17:36:16.510Z,98209.38
2022-11-20T17:38:44.606Z,98198.28
2022-11-20T17:41:17.068Z,98200.91
2022-11-20T17:43:44.460Z,98188.03
2022-11-20T17:46:17.165Z,98189.78
2022-11-20T17:48:44.853Z,98173.50
2022-11-20T17:51:17.313Z,98172.75
2022-11-20T17:53:46.638Z,98158.22
2022-11-20T17:56:32.325Z,98152.25
2022-11-20T17:58:59.511Z,98163.56
2022-11-20T18:01:27.902Z,98147.28
2022-11-20T18:03:56.750Z,98145.63
2022-11-20T18:06:25.533Z,98143.91
2022-11-20T18:08:52.809Z,98137.94
2022-11-20T18:11:19.784Z,98139.72
2022-11-20T18:14:07.706Z,98140.63
2022-11-20T18:16:37.684Z,98134.59
2022-11-20T18:19:04.785Z,98133.72
2022-11-20T18:21:32.337Z,98131.19
2022-11-20T18:23:59.098Z,98139.84
2022-11-20T18:26:26.589Z,98131.25
2022-11-20T18:28:54.236Z,98139.94
2022-11-20T18:31:21.557Z,98138.22
2022-11-20T18:33:48.589Z,98144.28
2022-11-20T18:36:18.452Z,98136.53
2022-11-20T18:38:47.603Z,98140.00
2022-11-20T18:41:35.970Z,98140.88
2022-11-20T18:44:23.376Z,98153.00
2022-11-20T18:46:51.062Z,98153.06
2022-11-20T18:49:18.227Z,98152.25
2022-11-20T18:51:45.424Z,98146.25
2022-11-20T18:54:13.583Z,98144.50
2022-11-20T18:56:40.833Z,98145.38
2022-11-20T18:59:09.688Z,98147.16
2022-11-20T19:01:37.693Z,98139.44
2022-11-20T19:04:12.152Z,98142.06
2022-11-20T19:06:41.147Z,98158.41
2022-11-20T19:09:10.417Z,98160.16
2022-11-20T19:11:39.408Z,98157.59
2022-11-20T19:14:06.502Z,98164.50
2022-11-20T19:16:33.839Z,98163.66
2022-11-20T19:19:03.351Z,98167.97
2022-11-20T19:21:31.087Z,98161.06
2022-11-20T19:24:00.113Z,98170.53
2022-11-20T19:26:27.346Z,98168.81
2022-11-20T19:28:54.225Z,98163.66
2022-11-20T19:31:25.018Z,98161.91
2022-11-20T19:33:57.173Z,98154.97
2022-11-20T19:36:30.025Z,98161.81
2022-11-20T19:38:57.376Z,98166.13
2022-11-20T19:41:31.710Z,98177.28
2022-11-20T19:44:00.036Z,98175.47
2022-11-20T19:46:28.738Z,98170.28
2022-11-20T19:48:56.436Z,98170.22
2022-11-20T19:51:31.501Z,98165.06
2022-11-20T19:54:00.034Z,98161.56
2022-11-20T19:56:28.695Z,98168.44
2022-11-20T19:58:56.933Z,98166.69
2022-11-20T20:01:26.913Z,98172.66
2022-11-20T20:03:54.358Z,98161.47
2022-11-20T20:06:23.907Z,98158.84
2022-11-20T20:09:00.960Z,98152.84
2022-11-20T20:11:30.816Z,98151.97
2022-11-20T20:13:59.122Z,98149.38
2022-11-20T20:16:27.917Z,98152.84
2022-11-20T20:18:56.752Z,98152.00
2022-11-20T20:21:24.382Z,98145.13
2022-11-20T20:23:55.365Z,98140.00
2022-11-20T20:26:24.372Z,98136.59
2022-11-20T20:28:51.463Z,98131.50
2022-11-20T20:31:21.477Z,98128.97
2022-11-20T20:33:48.571Z,98124.75
2022-11-20T20:36:17.499Z,98133.41
2022-11-20T20:38:46.349Z,98135.19
2022-11-20T20:41:14.359Z,98144.66
2022-11-20T20:44:00.333Z,98145.56
2022-11-20T20:46:27.364Z,98145.63
2022-11-20T20:48:55.034Z,98143.00
2022-11-20T20:51:22.971Z,98149.00
2022-11-20T20:53:50.496Z,98155.81
2022-11-20T20:56:18.274Z,98151.47
2022-11-20T20:58:45.380Z,98153.19
2022-11-20T21:01:15.909Z,98148.00
2022-11-20T21:03:43.055Z,98147.97
2022-11-20T21:06:11.234Z,98151.38
2022-11-20T21:08:40.805Z,98142.75
2022-11-20T21:11:16.986Z,98137.50
2022-11-20T21:13:45.363Z,98123.53
2022-11-20T21:16:14.063Z,98109.69
2022-11-20T21:18:41.097Z,98112.19
2022-11-20T21:21:30.621Z,98116.53
2022-11-20T21:23:57.439Z,98118.25
2022-11-20T21:26:24.607Z,98113.13
2022-11-20T21:28:51.380Z,98115.75
2022-11-20T21:31:24.965Z,98102.16
2022-11-20T21:33:53.812Z,98095.38
2022-11-20T21:36:25.905Z,98089.38
2022-11-20T21:38:54.957Z,98073.91
2022-11-20T21:41:22.730Z,98073.00
2022-11-20T21:44:15.837Z,98072.06
2022-11-20T21:46:39.024Z,98078.88
2022-11-20T21:49:05.886Z,98061.59
2022-11-20T21:51:33.393Z,98078.75
2022-11-20T21:54:00.139Z,98081.28
2022-11-20T21:56:27.298Z,98083.88
2022-11-20T21:58:54.979Z,98076.97
2022-11-20T22:01:29.734Z,98069.22
2022-11-20T22:03:59.185Z,98077.91
2022-11-20T22:06:30.421Z,98077.91
2022-11-20T22:08:57.278Z,98077.06
2022-11-20T22:11:24.359Z,98068.50
2022-11-20T22:14:10.109Z,98074.59
2022-11-20T22:16:38.135Z,98072.09
2022-11-20T22:19:05.981Z,98070.41
2022-11-20T22:21:33.520Z,98074.75
2022-11-20T22:24:00.801Z,98074.72
2022-11-20T22:26:39.689Z,98078.19
2022-11-20T22:29:07.731Z,98068.75
2022-11-20T22:31:34.813Z,98071.31
2022-11-20T22:34:02.366Z,98077.38
2022-11-20T22:36:31.250Z,98090.25
2022-11-20T22:38:58.702Z,98102.31
2022-11-20T22:41:27.855Z,98100.63
2022-11-20T22:43:57.096Z,98101.53
2022-11-20T22:46:25.293Z,98105.00
2022-11-20T22:48:54.837Z,98107.63
2022-11-20T22:51:25.090Z,98111.94
2022-11-20T22:53:52.494Z,98117.16
2022-11-20T22:56:19.818Z,98118.94
2022-11-20T22:58:48.820Z,98115.59
2022-11-20T23:01:31.078Z,98098.44
2022-11-20T23:04:00.398Z,98097.59
2022-11-20T23:06:27.687Z,98098.44
2022-11-20T23:08:55.097Z,98099.38
2022-11-20T23:11:24.654Z,98096.81
2022-11-20T23:13:58.047Z,98098.53
2022-11-20T23:16:27.975Z,98101.09
2022-11-20T23:19:00.584Z,98115.75
2022-11-20T23:21:28.338Z,98108.84
2022-11-20T23:23:57.214Z,98119.19
2022-11-20T23:26:26.420Z,98105.47
2022-11-20T23:28:53.832Z,98111.47
2022-11-20T23:31:21.064Z,98117.47
2022-11-20T23:33:47.886Z,98109.75
2022-11-20T23:36:15.328Z,98103.72
2022-11-20T23:38:42.280Z,98101.13
2022-11-20T23:41:12.700Z,98110.56
2022-11-20T23:43:39.718Z,98093.41
2022-11-20T23:46:07.378Z,98096.00
2022-11-20T23:48:36.585Z,98102.03
2022-11-20T23:51:05.121Z,98088.31
2022-11-20T23:53:32.145Z,98098.59
2022-11-20T23:56:01.966Z,98095.19
2022-11-20T23:58:38.792Z,98096.03
